sensor_id;sensor_type;location;lat;lon;timestamp;temperature;humidity
1329;DHT22;658;48.820;9.354;2023-03-11T00:01:59;22.00;38.70
1329;DHT22;658;48.820;9.354;2023-03-11T00:06:00;22.00;38.60
1329;DHT22;658;48.820;9.354;2023-03-11T00:10:01;22.00;38.60
1329;DHT22;658;48.820;9.354;2023-03-11T00:14:01;22.00;38.50
1329;DHT22;658;48.820;9.354;2023-03-11T00:18:02;22.00;38.50
1329;DHT22;658;48.820;9.354;2023-03-11T00:22:06;22.10;38.60
1329;DHT22;658;48.820;9.354;2023-03-11T00:26:07;22.00;38.40
1329;DHT22;658;48.820;9.354;2023-03-11T00:30:08;22.00;38.40
1329;DHT22;658;48.820;9.354;2023-03-11T00:34:09;22.10;38.30
1329;DHT22;658;48.820;9.354;2023-03-11T00:38:13;22.00;38.30
1329;DHT22;658;48.820;9.354;2023-03-11T00:42:14;22.00;38.20
1329;DHT22;658;48.820;9.354;2023-03-11T00:46:15;22.10;38.20
1329;DHT22;658;48.820;9.354;2023-03-11T00:50:24;22.10;38.20
1329;DHT22;658;48.820;9.354;2023-03-11T00:54:25;22.00;38.10
1329;DHT22;658;48.820;9.354;2023-03-11T00:58:29;22.00;38.00
1329;DHT22;658;48.820;9.354;2023-03-11T01:02:34;22.10;38.10
1329;DHT22;658;48.820;9.354;2023-03-11T01:06:34;22.10;38.00
1329;DHT22;658;48.820;9.354;2023-03-11T01:10:37;22.10;38.00
1329;DHT22;658;48.820;9.354;2023-03-11T01:14:38;22.00;37.90
1329;DHT22;658;48.820;9.354;2023-03-11T01:18:38;22.00;37.90
1329;DHT22;658;48.820;9.354;2023-03-11T01:22:39;22.00;37.90
1329;DHT22;658;48.820;9.354;2023-03-11T01:26:40;22.00;37.90
1329;DHT22;658;48.820;9.354;2023-03-11T01:30:48;22.00;37.80
1329;DHT22;658;48.820;9.354;2023-03-11T01:34:52;22.00;37.80
1329;DHT22;658;48.820;9.354;2023-03-11T01:38:52;22.00;37.80
1329;DHT22;658;48.820;9.354;2023-03-11T01:42:53;22.00;37.80
1329;DHT22;658;48.820;9.354;2023-03-11T01:51:03;22.00;37.70
1329;DHT22;658;48.820;9.354;2023-03-11T01:55:07;22.00;37.60
1329;DHT22;658;48.820;9.354;2023-03-11T01:59:13;21.90;37.60
1329;DHT22;658;48.820;9.354;2023-03-11T02:03:20;21.90;37.60
1329;DHT22;658;48.820;9.354;2023-03-11T02:07:23;21.90;37.60
1329;DHT22;658;48.820;9.354;2023-03-11T02:11:28;21.90;37.60
1329;DHT22;658;48.820;9.354;2023-03-11T02:15:29;21.90;37.60
1329;DHT22;658;48.820;9.354;2023-03-11T02:28:07;21.90;37.50
1329;DHT22;658;48.820;9.354;2023-03-11T02:32:10;21.90;37.40
1329;DHT22;658;48.820;9.354;2023-03-11T02:36:36;21.90;37.40
1329;DHT22;658;48.820;9.354;2023-03-11T02:40:43;21.90;37.50
1329;DHT22;658;48.820;9.354;2023-03-11T02:48:55;21.90;37.40
1329;DHT22;658;48.820;9.354;2023-03-11T02:52:56;21.90;37.30
1329;DHT22;658;48.820;9.354;2023-03-11T02:56:57;21.90;37.30
1329;DHT22;658;48.820;9.354;2023-03-11T03:01:00;21.90;37.30
1329;DHT22;658;48.820;9.354;2023-03-11T03:05:01;22.00;37.30
1329;DHT22;658;48.820;9.354;2023-03-11T03:09:02;22.00;37.90
1329;DHT22;658;48.820;9.354;2023-03-11T03:13:03;22.00;37.20
1329;DHT22;658;48.820;9.354;2023-03-11T03:17:04;22.00;37.30
1329;DHT22;658;48.820;9.354;2023-03-11T03:21:04;22.00;37.20
1329;DHT22;658;48.820;9.354;2023-03-11T03:25:06;22.00;37.20
1329;DHT22;658;48.820;9.354;2023-03-11T03:29:06;22.00;37.00
1329;DHT22;658;48.820;9.354;2023-03-11T03:33:08;22.00;37.10
1329;DHT22;658;48.820;9.354;2023-03-11T03:37:08;22.00;37.10
1329;DHT22;658;48.820;9.354;2023-03-11T03:41:11;22.00;37.10
1329;DHT22;658;48.820;9.354;2023-03-11T03:45:12;22.00;37.00
1329;DHT22;658;48.820;9.354;2023-03-11T03:49:13;22.00;37.00
1329;DHT22;658;48.820;9.354;2023-03-11T03:53:13;22.00;37.00
1329;DHT22;658;48.820;9.354;2023-03-11T03:57:14;22.00;37.00
1329;DHT22;658;48.820;9.354;2023-03-11T04:01:15;22.00;36.90
1329;DHT22;658;48.820;9.354;2023-03-11T04:05:15;22.00;37.00
1329;DHT22;658;48.820;9.354;2023-03-11T04:09:19;22.00;36.90
1329;DHT22;658;48.820;9.354;2023-03-11T04:13:20;22.00;36.90
1329;DHT22;658;48.820;9.354;2023-03-11T04:17:20;22.00;36.90
1329;DHT22;658;48.820;9.354;2023-03-11T04:21:21;22.00;36.80
1329;DHT22;658;48.820;9.354;2023-03-11T04:25:22;22.00;36.90
1329;DHT22;658;48.820;9.354;2023-03-11T04:29:22;22.00;36.80
1329;DHT22;658;48.820;9.354;2023-03-11T04:33:28;21.90;36.70
1329;DHT22;658;48.820;9.354;2023-03-11T04:37:29;21.90;36.70
1329;DHT22;658;48.820;9.354;2023-03-11T04:41:30;22.00;36.80
1329;DHT22;658;48.820;9.354;2023-03-11T04:45:30;22.00;36.70
1329;DHT22;658;48.820;9.354;2023-03-11T04:49:31;22.00;36.70
1329;DHT22;658;48.820;9.354;2023-03-11T04:53:32;21.90;36.70
1329;DHT22;658;48.820;9.354;2023-03-11T04:57:33;21.90;36.70
1329;DHT22;658;48.820;9.354;2023-03-11T05:01:33;21.90;36.70
1329;DHT22;658;48.820;9.354;2023-03-11T05:05:34;21.90;36.70
1329;DHT22;658;48.820;9.354;2023-03-11T05:09:34;21.90;36.70
1329;DHT22;658;48.820;9.354;2023-03-11T05:13:35;21.90;36.70
1329;DHT22;658;48.820;9.354;2023-03-11T05:17:36;21.90;36.70
1329;DHT22;658;48.820;9.354;2023-03-11T05:21:36;21.90;36.60
1329;DHT22;658;48.820;9.354;2023-03-11T05:25:37;21.90;36.60
1329;DHT22;658;48.820;9.354;2023-03-11T05:29:38;21.90;36.60
1329;DHT22;658;48.820;9.354;2023-03-11T05:33:38;21.90;36.60
1329;DHT22;658;48.820;9.354;2023-03-11T05:37:39;21.90;36.60
1329;DHT22;658;48.820;9.354;2023-03-11T05:41:40;21.90;36.60
1329;DHT22;658;48.820;9.354;2023-03-11T05:45:40;21.90;36.60
1329;DHT22;658;48.820;9.354;2023-03-11T05:49:41;21.90;36.60
1329;DHT22;658;48.820;9.354;2023-03-11T05:53:43;21.90;36.70
1329;DHT22;658;48.820;9.354;2023-03-11T05:57:50;21.90;36.50
1329;DHT22;658;48.820;9.354;2023-03-11T06:01:51;21.90;36.50
1329;DHT22;658;48.820;9.354;2023-03-11T06:05:52;21.90;36.50
1329;DHT22;658;48.820;9.354;2023-03-11T06:09:55;21.90;36.60
1329;DHT22;658;48.820;9.354;2023-03-11T06:13:56;21.90;36.60
1329;DHT22;658;48.820;9.354;2023-03-11T06:17:57;21.90;36.60
1329;DHT22;658;48.820;9.354;2023-03-11T06:21:58;21.90;36.70
1329;DHT22;658;48.820;9.354;2023-03-11T06:26:03;21.90;36.70
1329;DHT22;658;48.820;9.354;2023-03-11T06:30:04;21.90;36.70
1329;DHT22;658;48.820;9.354;2023-03-11T06:34:05;21.90;36.70
1329;DHT22;658;48.820;9.354;2023-03-11T06:38:06;21.90;36.70
1329;DHT22;658;48.820;9.354;2023-03-11T06:42:10;21.90;36.60
1329;DHT22;658;48.820;9.354;2023-03-11T06:46:18;22.00;36.70
1329;DHT22;658;48.820;9.354;2023-03-11T06:50:19;21.90;36.60
1329;DHT22;658;48.820;9.354;2023-03-11T06:54:22;22.00;36.70
1329;DHT22;658;48.820;9.354;2023-03-11T06:58:23;22.00;36.70
1329;DHT22;658;48.820;9.354;2023-03-11T07:02:24;21.90;36.70
1329;DHT22;658;48.820;9.354;2023-03-11T07:06:25;21.90;36.70
1329;DHT22;658;48.820;9.354;2023-03-11T07:10:26;21.90;36.60
1329;DHT22;658;48.820;9.354;2023-03-11T07:14:27;21.90;36.60
1329;DHT22;658;48.820;9.354;2023-03-11T07:18:28;21.90;36.70
1329;DHT22;658;48.820;9.354;2023-03-11T07:22:29;21.90;36.70
1329;DHT22;658;48.820;9.354;2023-03-11T07:26:33;21.90;36.70
1329;DHT22;658;48.820;9.354;2023-03-11T07:30:34;21.90;36.70
1329;DHT22;658;48.820;9.354;2023-03-11T07:34:37;21.90;36.70
1329;DHT22;658;48.820;9.354;2023-03-11T07:38:39;21.90;36.70
1329;DHT22;658;48.820;9.354;2023-03-11T07:42:39;21.90;36.70
1329;DHT22;658;48.820;9.354;2023-03-11T07:46:40;21.90;36.80
1329;DHT22;658;48.820;9.354;2023-03-11T07:50:44;21.90;36.70
1329;DHT22;658;48.820;9.354;2023-03-11T07:54:44;21.90;36.70
1329;DHT22;658;48.820;9.354;2023-03-11T07:58:46;21.90;36.70
1329;DHT22;658;48.820;9.354;2023-03-11T08:02:47;21.80;36.70
1329;DHT22;658;48.820;9.354;2023-03-11T08:06:48;21.90;36.70
1329;DHT22;658;48.820;9.354;2023-03-11T08:10:49;21.90;36.80
1329;DHT22;658;48.820;9.354;2023-03-11T08:14:49;21.90;36.80
1329;DHT22;658;48.820;9.354;2023-03-11T08:18:51;21.90;36.70
1329;DHT22;658;48.820;9.354;2023-03-11T08:22:51;21.80;36.70
1329;DHT22;658;48.820;9.354;2023-03-11T08:26:52;21.80;36.70
1329;DHT22;658;48.820;9.354;2023-03-11T08:30:52;21.80;36.70
1329;DHT22;658;48.820;9.354;2023-03-11T08:34:53;21.80;36.70
1329;DHT22;658;48.820;9.354;2023-03-11T08:38:54;21.80;36.80
1329;DHT22;658;48.820;9.354;2023-03-11T08:42:55;21.80;36.80
1329;DHT22;658;48.820;9.354;2023-03-11T08:46:55;21.80;36.70
1329;DHT22;658;48.820;9.354;2023-03-11T08:50:56;21.80;36.80
1329;DHT22;658;48.820;9.354;2023-03-11T08:54:57;21.80;36.70
1329;DHT22;658;48.820;9.354;2023-03-11T08:58:58;21.90;36.80
1329;DHT22;658;48.820;9.354;2023-03-11T09:02:58;21.90;36.90
1329;DHT22;658;48.820;9.354;2023-03-11T09:06:59;22.00;36.80
1329;DHT22;658;48.820;9.354;2023-03-11T09:11:00;22.10;36.80
1329;DHT22;658;48.820;9.354;2023-03-11T09:15:00;22.10;36.70
1329;DHT22;658;48.820;9.354;2023-03-11T09:19:01;22.20;36.80
1329;DHT22;658;48.820;9.354;2023-03-11T09:23:07;22.20;36.70
1329;DHT22;658;48.820;9.354;2023-03-11T09:27:07;22.30;36.60
1329;DHT22;658;48.820;9.354;2023-03-11T09:31:11;22.40;36.60
1329;DHT22;658;48.820;9.354;2023-03-11T09:35:13;22.40;36.50
1329;DHT22;658;48.820;9.354;2023-03-11T09:39:14;22.50;36.50
1329;DHT22;658;48.820;9.354;2023-03-11T09:43:18;22.50;36.50
1329;DHT22;658;48.820;9.354;2023-03-11T09:52:12;22.60;36.50
1329;DHT22;658;48.820;9.354;2023-03-11T09:56:17;22.70;36.90
1329;DHT22;658;48.820;9.354;2023-03-11T10:00:19;22.70;36.20
1329;DHT22;658;48.820;9.354;2023-03-11T10:05:23;22.80;36.10
1329;DHT22;658;48.820;9.354;2023-03-11T10:13:38;22.90;35.70
1329;DHT22;658;48.820;9.354;2023-03-11T10:18:09;22.90;35.30
1329;DHT22;658;48.820;9.354;2023-03-11T10:26:32;23.20;35.00
1329;DHT22;658;48.820;9.354;2023-03-11T10:30:38;23.30;34.80
1329;DHT22;658;48.820;9.354;2023-03-11T10:34:48;23.40;34.60
1329;DHT22;658;48.820;9.354;2023-03-11T10:38:53;23.40;34.70
1329;DHT22;658;48.820;9.354;2023-03-11T10:42:57;23.40;34.50
1329;DHT22;658;48.820;9.354;2023-03-11T10:46:59;23.40;34.40
1329;DHT22;658;48.820;9.354;2023-03-11T10:51:04;23.40;34.50
1329;DHT22;658;48.820;9.354;2023-03-11T10:55:15;23.40;34.40
1329;DHT22;658;48.820;9.354;2023-03-11T10:59:28;23.40;34.30
1329;DHT22;658;48.820;9.354;2023-03-11T11:03:29;23.40;34.40
1329;DHT22;658;48.820;9.354;2023-03-11T11:07:33;23.30;34.30
1329;DHT22;658;48.820;9.354;2023-03-11T11:11:34;23.30;34.30
1329;DHT22;658;48.820;9.354;2023-03-11T11:15:41;23.30;34.30
1329;DHT22;658;48.820;9.354;2023-03-11T11:19:44;23.30;34.30
1329;DHT22;658;48.820;9.354;2023-03-11T11:23:49;23.30;34.20
1329;DHT22;658;48.820;9.354;2023-03-11T11:28:01;23.40;34.10
1329;DHT22;658;48.820;9.354;2023-03-11T11:36:17;23.50;34.10
1329;DHT22;658;48.820;9.354;2023-03-11T11:40:25;23.50;34.00
1329;DHT22;658;48.820;9.354;2023-03-11T11:44:32;23.60;34.20
1329;DHT22;658;48.820;9.354;2023-03-11T11:57:17;24.20;33.40
1329;DHT22;658;48.820;9.354;2023-03-11T12:01:38;24.60;33.00
1329;DHT22;658;48.820;9.354;2023-03-11T12:05:49;24.90;32.40
1329;DHT22;658;48.820;9.354;2023-03-11T12:10:20;24.90;32.90
1329;DHT22;658;48.820;9.354;2023-03-11T12:14:47;24.90;32.80
1329;DHT22;658;48.820;9.354;2023-03-11T12:19:22;24.80;32.70
1329;DHT22;658;48.820;9.354;2023-03-11T12:23:52;24.80;32.80
1329;DHT22;658;48.820;9.354;2023-03-11T12:32:42;24.60;32.70
1329;DHT22;658;48.820;9.354;2023-03-11T12:36:44;24.70;32.90
1329;DHT22;658;48.820;9.354;2023-03-11T12:40:55;24.80;32.60
1329;DHT22;658;48.820;9.354;2023-03-11T12:49:38;25.30;31.80
1329;DHT22;658;48.820;9.354;2023-03-11T12:53:57;25.50;31.60
1329;DHT22;658;48.820;9.354;2023-03-11T12:58:16;25.60;31.60
1329;DHT22;658;48.820;9.354;2023-03-11T13:07:34;26.00;30.90
1329;DHT22;658;48.820;9.354;2023-03-11T13:11:42;26.30;30.50
1329;DHT22;658;48.820;9.354;2023-03-11T13:15:43;26.20;30.30
1329;DHT22;658;48.820;9.354;2023-03-11T13:19:57;26.20;30.40
1329;DHT22;658;48.820;9.354;2023-03-11T13:33:11;26.90;30.10
1329;DHT22;658;48.820;9.354;2023-03-11T13:41:42;27.70;29.50
1329;DHT22;658;48.820;9.354;2023-03-11T13:45:53;28.00;29.20
1329;DHT22;658;48.820;9.354;2023-03-11T13:58:25;28.80;28.30
1329;DHT22;658;48.820;9.354;2023-03-11T14:02:29;29.00;28.10
1329;DHT22;658;48.820;9.354;2023-03-11T14:06:29;29.20;27.80
1329;DHT22;658;48.820;9.354;2023-03-11T14:10:30;29.20;27.60
1329;DHT22;658;48.820;9.354;2023-03-11T14:14:55;29.10;27.70
1329;DHT22;658;48.820;9.354;2023-03-11T14:19:11;29.10;27.70
1329;DHT22;658;48.820;9.354;2023-03-11T14:23:17;29.10;27.70
1329;DHT22;658;48.820;9.354;2023-03-11T14:27:18;29.00;27.60
1329;DHT22;658;48.820;9.354;2023-03-11T14:31:33;29.00;27.60
1329;DHT22;658;48.820;9.354;2023-03-11T14:35:34;29.00;27.60
1329;DHT22;658;48.820;9.354;2023-03-11T14:39:38;28.90;27.70
1329;DHT22;658;48.820;9.354;2023-03-11T14:43:45;28.60;27.90
1329;DHT22;658;48.820;9.354;2023-03-11T14:48:02;28.40;28.20
1329;DHT22;658;48.820;9.354;2023-03-11T14:52:14;28.20;28.40
1329;DHT22;658;48.820;9.354;2023-03-11T14:56:19;27.90;28.60
1329;DHT22;658;48.820;9.354;2023-03-11T15:00:24;27.70;28.80
1329;DHT22;658;48.820;9.354;2023-03-11T15:04:34;27.40;29.00
1329;DHT22;658;48.820;9.354;2023-03-11T15:08:45;27.20;29.30
1329;DHT22;658;48.820;9.354;2023-03-11T15:12:46;27.00;29.40
1329;DHT22;658;48.820;9.354;2023-03-11T15:16:50;26.90;29.70
1329;DHT22;658;48.820;9.354;2023-03-11T15:21:12;26.70;29.80
1329;DHT22;658;48.820;9.354;2023-03-11T15:25:16;26.60;29.90
1329;DHT22;658;48.820;9.354;2023-03-11T15:29:17;26.50;29.90
1329;DHT22;658;48.820;9.354;2023-03-11T15:33:20;26.40;30.00
1329;DHT22;658;48.820;9.354;2023-03-11T15:37:24;26.20;30.30
1329;DHT22;658;48.820;9.354;2023-03-11T15:41:28;26.10;30.50
1329;DHT22;658;48.820;9.354;2023-03-11T15:45:29;25.90;30.60
1329;DHT22;658;48.820;9.354;2023-03-11T15:49:30;25.90;31.20
1329;DHT22;658;48.820;9.354;2023-03-11T15:53:30;25.80;31.30
1329;DHT22;658;48.820;9.354;2023-03-11T15:57:31;25.70;31.30
1329;DHT22;658;48.820;9.354;2023-03-11T16:01:32;25.60;31.40
1329;DHT22;658;48.820;9.354;2023-03-11T16:05:32;25.60;31.40
1329;DHT22;658;48.820;9.354;2023-03-11T16:09:33;25.50;31.40
1329;DHT22;658;48.820;9.354;2023-03-11T16:13:34;25.30;31.40
1329;DHT22;658;48.820;9.354;2023-03-11T16:17:34;25.30;31.50
1329;DHT22;658;48.820;9.354;2023-03-11T16:21:44;25.20;31.60
1329;DHT22;658;48.820;9.354;2023-03-11T16:25:49;25.10;31.70
1329;DHT22;658;48.820;9.354;2023-03-11T16:29:50;25.00;31.80
1329;DHT22;658;48.820;9.354;2023-03-11T16:33:51;24.90;31.80
1329;DHT22;658;48.820;9.354;2023-03-11T16:37:52;24.90;32.00
1329;DHT22;658;48.820;9.354;2023-03-11T16:41:53;24.80;32.00
1329;DHT22;658;48.820;9.354;2023-03-11T16:45:54;24.70;32.00
1329;DHT22;658;48.820;9.354;2023-03-11T16:49:54;24.70;32.00
1329;DHT22;658;48.820;9.354;2023-03-11T16:53:55;24.60;32.10
1329;DHT22;658;48.820;9.354;2023-03-11T16:57:56;24.50;32.30
1329;DHT22;658;48.820;9.354;2023-03-11T17:01:56;24.50;32.40
1329;DHT22;658;48.820;9.354;2023-03-11T17:06:01;24.40;32.40
1329;DHT22;658;48.820;9.354;2023-03-11T17:10:03;24.30;32.50
1329;DHT22;658;48.820;9.354;2023-03-11T17:14:04;24.30;32.60
1329;DHT22;658;48.820;9.354;2023-03-11T17:18:05;24.20;32.70
1329;DHT22;658;48.820;9.354;2023-03-11T17:22:05;24.10;32.60
1329;DHT22;658;48.820;9.354;2023-03-11T17:26:08;24.10;32.90
1329;DHT22;658;48.820;9.354;2023-03-11T17:30:11;24.00;32.90
1329;DHT22;658;48.820;9.354;2023-03-11T17:34:11;24.00;33.00
1329;DHT22;658;48.820;9.354;2023-03-11T17:38:15;23.90;33.00
1329;DHT22;658;48.820;9.354;2023-03-11T17:42:16;23.90;33.10
1329;DHT22;658;48.820;9.354;2023-03-11T17:46:18;23.90;33.10
1329;DHT22;658;48.820;9.354;2023-03-11T17:50:19;23.80;33.20
1329;DHT22;658;48.820;9.354;2023-03-11T17:54:19;23.80;33.80
1329;DHT22;658;48.820;9.354;2023-03-11T17:58:23;23.70;33.20
1329;DHT22;658;48.820;9.354;2023-03-11T18:02:24;23.70;33.30
1329;DHT22;658;48.820;9.354;2023-03-11T18:06:25;23.70;33.30
1329;DHT22;658;48.820;9.354;2023-03-11T18:10:25;23.60;33.30
1329;DHT22;658;48.820;9.354;2023-03-11T18:14:29;23.60;34.90
1329;DHT22;658;48.820;9.354;2023-03-11T18:18:30;23.50;34.70
1329;DHT22;658;48.820;9.354;2023-03-11T18:22:32;23.50;34.20
1329;DHT22;658;48.820;9.354;2023-03-11T18:26:33;23.40;34.40
1329;DHT22;658;48.820;9.354;2023-03-11T18:30:37;23.40;34.40
1329;DHT22;658;48.820;9.354;2023-03-11T18:34:37;23.30;34.40
1329;DHT22;658;48.820;9.354;2023-03-11T18:38:38;23.30;34.40
1329;DHT22;658;48.820;9.354;2023-03-11T18:42:39;23.20;34.40
1329;DHT22;658;48.820;9.354;2023-03-11T18:46:39;23.20;34.50
1329;DHT22;658;48.820;9.354;2023-03-11T18:50:41;23.10;34.50
1329;DHT22;658;48.820;9.354;2023-03-11T18:54:44;23.10;34.60
1329;DHT22;658;48.820;9.354;2023-03-11T18:58:45;23.00;34.50
1329;DHT22;658;48.820;9.354;2023-03-11T19:02:49;23.00;34.50
1329;DHT22;658;48.820;9.354;2023-03-11T19:06:50;22.90;34.40
1329;DHT22;658;48.820;9.354;2023-03-11T19:10:51;22.90;34.50
1329;DHT22;658;48.820;9.354;2023-03-11T19:14:52;22.90;34.50
1329;DHT22;658;48.820;9.354;2023-03-11T19:18:54;22.90;34.60
1329;DHT22;658;48.820;9.354;2023-03-11T19:22:55;22.80;34.50
1329;DHT22;658;48.820;9.354;2023-03-11T19:26:55;22.80;34.60
1329;DHT22;658;48.820;9.354;2023-03-11T19:30:57;22.80;34.80
1329;DHT22;658;48.820;9.354;2023-03-11T19:34:58;22.80;34.80
1329;DHT22;658;48.820;9.354;2023-03-11T19:38:58;22.70;34.80
1329;DHT22;658;48.820;9.354;2023-03-11T19:42:59;22.70;34.90
1329;DHT22;658;48.820;9.354;2023-03-11T19:47:00;22.70;35.00
1329;DHT22;658;48.820;9.354;2023-03-11T19:51:00;22.60;35.00
1329;DHT22;658;48.820;9.354;2023-03-11T19:55:02;22.60;35.00
1329;DHT22;658;48.820;9.354;2023-03-11T19:59:03;22.60;35.10
1329;DHT22;658;48.820;9.354;2023-03-11T20:03:03;22.60;35.30
1329;DHT22;658;48.820;9.354;2023-03-11T20:07:04;22.60;35.50
1329;DHT22;658;48.820;9.354;2023-03-11T20:11:05;22.50;35.60
1329;DHT22;658;48.820;9.354;2023-03-11T20:15:06;22.60;35.80
1329;DHT22;658;48.820;9.354;2023-03-11T20:19:07;22.50;35.90
1329;DHT22;658;48.820;9.354;2023-03-11T20:23:07;22.50;36.00
1329;DHT22;658;48.820;9.354;2023-03-11T20:27:08;22.50;36.00
1329;DHT22;658;48.820;9.354;2023-03-11T20:31:12;22.50;36.30
1329;DHT22;658;48.820;9.354;2023-03-11T20:35:14;22.40;36.40
1329;DHT22;658;48.820;9.354;2023-03-11T20:39:19;22.40;36.50
1329;DHT22;658;48.820;9.354;2023-03-11T20:43:20;22.40;36.70
1329;DHT22;658;48.820;9.354;2023-03-11T20:47:21;22.30;36.50
1329;DHT22;658;48.820;9.354;2023-03-11T20:51:21;22.30;36.70
1329;DHT22;658;48.820;9.354;2023-03-11T20:55:23;22.30;36.70
1329;DHT22;658;48.820;9.354;2023-03-11T20:59:27;22.30;36.80
1329;DHT22;658;48.820;9.354;2023-03-11T21:03:28;22.30;37.00
1329;DHT22;658;48.820;9.354;2023-03-11T21:07:29;22.20;37.00
1329;DHT22;658;48.820;9.354;2023-03-11T21:11:29;22.20;37.10
1329;DHT22;658;48.820;9.354;2023-03-11T21:15:30;22.20;37.10
1329;DHT22;658;48.820;9.354;2023-03-11T21:19:31;22.10;37.20
1329;DHT22;658;48.820;9.354;2023-03-11T21:23:31;22.10;37.30
1329;DHT22;658;48.820;9.354;2023-03-11T21:27:32;22.10;37.30
1329;DHT22;658;48.820;9.354;2023-03-11T21:31:33;22.10;37.30
1329;DHT22;658;48.820;9.354;2023-03-11T21:35:36;22.00;37.40
1329;DHT22;658;48.820;9.354;2023-03-11T21:39:37;22.00;37.40
1329;DHT22;658;48.820;9.354;2023-03-11T21:43:38;22.00;37.50
1329;DHT22;658;48.820;9.354;2023-03-11T21:47:39;22.00;37.50
1329;DHT22;658;48.820;9.354;2023-03-11T21:51:40;21.90;37.40
1329;DHT22;658;48.820;9.354;2023-03-11T21:55:43;21.90;37.40
1329;DHT22;658;48.820;9.354;2023-03-11T21:59:45;21.90;37.50
1329;DHT22;658;48.820;9.354;2023-03-11T22:03:45;21.90;37.60
1329;DHT22;658;48.820;9.354;2023-03-11T22:07:47;21.90;37.70
1329;DHT22;658;48.820;9.354;2023-03-11T22:11:47;21.90;37.70
1329;DHT22;658;48.820;9.354;2023-03-11T22:15:48;21.90;37.70
1329;DHT22;658;48.820;9.354;2023-03-11T22:19:49;21.90;37.80
1329;DHT22;658;48.820;9.354;2023-03-11T22:23:49;21.80;37.70
1329;DHT22;658;48.820;9.354;2023-03-11T22:27:50;21.80;37.70
1329;DHT22;658;48.820;9.354;2023-03-11T22:31:51;21.80;37.80
1329;DHT22;658;48.820;9.354;2023-03-11T22:35:53;21.80;37.80
1329;DHT22;658;48.820;9.354;2023-03-11T22:39:54;21.80;38.10
1329;DHT22;658;48.820;9.354;2023-03-11T22:43:55;21.80;38.10
1329;DHT22;658;48.820;9.354;2023-03-11T22:47:55;21.70;38.10
1329;DHT22;658;48.820;9.354;2023-03-11T22:51:56;21.70;38.10
1329;DHT22;658;48.820;9.354;2023-03-11T22:55:56;21.70;38.10
1329;DHT22;658;48.820;9.354;2023-03-11T22:59:57;21.70;38.10
1329;DHT22;658;48.820;9.354;2023-03-11T23:03:58;21.70;38.20
1329;DHT22;658;48.820;9.354;2023-03-11T23:07:58;21.80;38.20
1329;DHT22;658;48.820;9.354;2023-03-11T23:11:59;21.80;38.20
1329;DHT22;658;48.820;9.354;2023-03-11T23:16:14;21.80;38.30
1329;DHT22;658;48.820;9.354;2023-03-11T23:20:16;21.80;38.30
1329;DHT22;658;48.820;9.354;2023-03-11T23:24:16;21.80;38.40
1329;DHT22;658;48.820;9.354;2023-03-11T23:28:17;21.90;38.30
1329;DHT22;658;48.820;9.354;2023-03-11T23:32:18;22.00;38.20
1329;DHT22;658;48.820;9.354;2023-03-11T23:36:20;22.00;38.10
1329;DHT22;658;48.820;9.354;2023-03-11T23:40:21;22.00;38.00
1329;DHT22;658;48.820;9.354;2023-03-11T23:44:22;22.00;38.10
1329;DHT22;658;48.820;9.354;2023-03-11T23:48:23;22.10;38.20
1329;DHT22;658;48.820;9.354;2023-03-11T23:52:24;22.10;38.10
1329;DHT22;658;48.820;9.354;2023-03-11T23:56:27;22.10;38.00
